Time;durP1;ratioP1;P1;durP2;ratioP2;P2;SDS_P1;SDS_P2;PMS_P1;PMS_P2;Temp;Humidity;BMP_temperature;BMP_pressure;BME280_temperature;BME280_humidity;BME280_pressure;Samples;Min_cycle;Max_cycle;Signal;HPM_P1;HPM_P2
2023/12/26 05:00:55;;;;;;;0.60;0.60;;;9.00;99.90;;;;;;5599377;23;20279;-72
2023/12/26 05:03:24;;;;;;;0.70;0.70;;;9.00;99.90;;;;;;4895360;29;20679;-72
2023/12/26 05:05:51;;;;;;;1.05;1.05;;;8.90;99.90;;;;;;4896193;29;20274;-71
2023/12/26 05:08:17;;;;;;;1.02;1.02;;;8.90;99.90;;;;;;4895473;29;20277;-72
2023/12/26 05:10:44;;;;;;;0.90;0.90;;;8.90;99.90;;;;;;4894812;29;20242;-72
2023/12/26 05:13:11;;;;;;;0.70;0.70;;;8.90;99.90;;;;;;4894525;29;20541;-71
2023/12/26 05:15:38;;;;;;;1.60;0.88;;;8.90;99.90;;;;;;4895164;29;20333;-71
2023/12/26 05:18:06;;;;;;;8.38;1.10;;;8.90;99.90;;;;;;4894602;29;20219;-70
2023/12/26 05:20:34;;;;;;;1.27;1.27;;;8.90;99.90;;;;;;4895662;29;20301;-71
2023/12/26 05:23:00;;;;;;;2.65;1.23;;;8.90;99.90;;;;;;4894521;29;20691;-70
2023/12/26 05:25:27;;;;;;;1.10;1.10;;;9.00;99.90;;;;;;4893188;29;20218;-71
2023/12/26 05:27:54;;;;;;;1.65;1.17;;;9.00;99.90;;;;;;4895808;29;20214;-72
2023/12/26 05:30:21;;;;;;;1.05;1.05;;;9.00;99.90;;;;;;4894857;29;20212;-70
2023/12/26 05:32:48;;;;;;;0.95;0.95;;;9.00;99.90;;;;;;4895559;29;20214;-71
2023/12/26 05:35:16;;;;;;;0.55;0.55;;;9.10;99.90;;;;;;4901472;29;20230;-70
2023/12/26 05:37:45;;;;;;;0.60;0.60;;;9.10;99.90;;;;;;4901161;29;20232;-71
2023/12/26 05:40:11;;;;;;;0.85;0.85;;;9.00;99.90;;;;;;4901055;29;20586;-71
2023/12/26 05:42:38;;;;;;;2.08;0.65;;;9.00;99.90;;;;;;4894959;29;20224;-71
2023/12/26 05:45:06;;;;;;;1.50;1.05;;;9.00;99.90;;;;;;4895277;29;20215;-71
2023/12/26 05:47:32;;;;;;;1.38;0.80;;;9.00;99.90;;;;;;4894836;29;20594;-71
2023/12/26 05:49:59;;;;;;;2.47;1.15;;;9.00;99.90;;;;;;4892081;29;20207;-70
2023/12/26 05:52:28;;;;;;;2.58;0.60;;;9.00;99.90;;;;;;4898500;29;20238;-71
2023/12/26 05:54:55;;;;;;;0.68;0.68;;;8.90;99.90;;;;;;4894570;29;20549;-71
2023/12/26 05:57:22;;;;;;;1.05;0.52;;;8.90;99.90;;;;;;4895089;29;20360;-70
2023/12/26 05:59:48;;;;;;;4.75;0.77;;;8.80;99.90;;;;;;4895248;29;20207;-71
2023/12/26 06:02:15;;;;;;;3.38;0.60;;;8.80;99.90;;;;;;4895020;29;20240;-71
2023/12/26 06:04:42;;;;;;;0.80;0.80;;;8.70;99.90;;;;;;4888150;29;20207;-71
2023/12/26 06:07:08;;;;;;;1.65;0.93;;;8.70;99.90;;;;;;4900868;29;20207;-71
2023/12/26 06:09:36;;;;;;;0.80;0.80;;;8.60;99.90;;;;;;4898676;29;20506;-72
2023/12/26 06:12:03;;;;;;;5.32;0.65;;;8.60;99.90;;;;;;4895206;29;20231;-71
2023/12/26 06:14:30;;;;;;;4.35;1.17;;;8.50;99.90;;;;;;4893817;29;20242;-72
2023/12/26 06:16:59;;;;;;;1.60;1.20;;;8.50;99.90;;;;;;4894027;29;20223;-71
2023/12/26 06:19:26;;;;;;;0.93;0.93;;;8.50;99.90;;;;;;4893835;29;20207;-71
2023/12/26 06:21:52;;;;;;;3.50;0.85;;;8.50;99.90;;;;;;4893464;29;20230;-71
2023/12/26 06:24:19;;;;;;;1.55;1.55;;;8.50;99.90;;;;;;4892322;29;20727;-71
2023/12/26 06:26:47;;;;;;;1.70;1.00;;;8.50;99.90;;;;;;4893112;29;20230;-71
2023/12/26 06:29:14;;;;;;;1.20;1.08;;;8.40;99.90;;;;;;4896941;29;20626;-72
2023/12/26 06:31:41;;;;;;;1.35;1.27;;;8.40;99.90;;;;;;4892677;29;20315;-72
2023/12/26 06:34:07;;;;;;;1.17;1.17;;;8.40;99.90;;;;;;4894303;29;20287;-71
2023/12/26 06:36:34;;;;;;;2.75;0.80;;;8.40;99.90;;;;;;4897484;29;20231;-71
2023/12/26 06:39:01;;;;;;;3.40;1.08;;;8.40;99.90;;;;;;4893678;29;20207;-71
2023/12/26 06:41:28;;;;;;;1.17;0.90;;;8.40;99.90;;;;;;4892148;29;20238;-72
2023/12/26 06:43:57;;;;;;;1.38;1.20;;;8.40;99.90;;;;;;4897382;29;20212;-72
2023/12/26 06:46:23;;;;;;;1.65;1.02;;;8.30;99.90;;;;;;4891368;29;20204;-71
2023/12/26 06:48:50;;;;;;;1.00;1.00;;;8.30;99.90;;;;;;4910696;29;20215;-70
2023/12/26 06:51:17;;;;;;;5.68;1.05;;;8.30;99.90;;;;;;4896596;29;20236;-71
2023/12/26 06:53:44;;;;;;;3.25;1.52;;;8.30;99.90;;;;;;4898397;29;20685;-71
2023/12/26 06:56:10;;;;;;;1.60;1.30;;;8.30;99.90;;;;;;4893011;29;20239;-70
2023/12/26 06:58:37;;;;;;;1.05;1.05;;;8.30;99.90;;;;;;4891642;29;20233;-71
2023/12/26 07:01:08;;;;;;;1.63;1.60;;;8.30;99.90;;;;;;4902489;29;20242;-70
2023/12/26 07:03:35;;;;;;;0.98;0.98;;;8.30;99.90;;;;;;4897901;29;20240;-70
2023/12/26 07:06:02;;;;;;;3.05;2.30;;;8.40;99.90;;;;;;4897877;29;20654;-71
2023/12/26 07:08:29;;;;;;;3.45;1.45;;;8.40;99.90;;;;;;4895894;29;20298;-71
2023/12/26 07:10:55;;;;;;;2.05;1.92;;;8.40;99.90;;;;;;4894952;29;20223;-71
2023/12/26 07:13:23;;;;;;;1.25;1.23;;;8.30;99.90;;;;;;4898012;29;20211;-71
2023/12/26 07:15:51;;;;;;;3.33;1.80;;;8.30;99.90;;;;;;4898282;29;20207;-71
2023/12/26 07:18:19;;;;;;;2.85;1.75;;;8.30;99.90;;;;;;4895459;29;20242;-72
2023/12/26 07:20:46;;;;;;;3.28;1.40;;;8.40;99.90;;;;;;4896085;29;20223;-71
2023/12/26 07:23:13;;;;;;;6.53;1.75;;;8.40;99.90;;;;;;4898242;29;20211;-70
2023/12/26 07:25:41;;;;;;;1.02;1.02;;;8.40;99.90;;;;;;4896014;29;20211;-71
2023/12/26 07:28:07;;;;;;;5.30;1.30;;;8.40;99.90;;;;;;4898075;29;20222;-71
2023/12/26 07:30:34;;;;;;;5.43;1.50;;;8.40;99.90;;;;;;4895972;29;20238;-71
2023/12/26 07:33:01;;;;;;;3.95;1.55;;;8.40;99.90;;;;;;4890012;29;20211;-70
2023/12/26 07:35:30;;;;;;;6.22;2.08;;;8.40;99.90;;;;;;4896776;29;20211;-71
2023/12/26 07:37:57;;;;;;;2.33;1.00;;;8.40;99.90;;;;;;4894927;29;20267;-71
2023/12/26 07:40:24;;;;;;;4.00;1.38;;;8.40;99.90;;;;;;4895910;29;20567;-71
2023/12/26 07:42:50;;;;;;;1.23;1.13;;;8.40;99.90;;;;;;4897984;29;20218;-71
2023/12/26 07:45:18;;;;;;;4.47;1.48;;;8.40;99.90;;;;;;4897931;29;20211;-71
2023/12/26 07:47:45;;;;;;;1.40;1.40;;;8.40;99.90;;;;;;4901373;29;20207;-71
2023/12/26 07:50:12;;;;;;;5.28;1.88;;;8.40;99.90;;;;;;4896912;29;20207;-71
2023/12/26 07:52:40;;;;;;;2.20;2.00;;;8.40;99.90;;;;;;4899263;29;20212;-71
2023/12/26 07:55:07;;;;;;;7.80;1.45;;;8.40;99.90;;;;;;4896386;29;20208;-72
2023/12/26 07:57:34;;;;;;;2.65;1.42;;;8.40;99.90;;;;;;4901858;29;20238;-71
2023/12/26 08:00:00;;;;;;;7.45;2.10;;;8.40;99.90;;;;;;4894029;29;20207;-70
2023/12/26 08:02:28;;;;;;;9.23;1.65;;;8.40;99.90;;;;;;4894357;29;20257;-69
2023/12/26 08:04:55;;;;;;;9.98;2.05;;;8.40;99.90;;;;;;4895682;29;20207;-70
2023/12/26 08:07:21;;;;;;;3.78;1.30;;;8.40;99.90;;;;;;4895457;29;20218;-69
2023/12/26 08:09:49;;;;;;;4.53;1.63;;;8.40;99.90;;;;;;4901579;29;20706;-70
2023/12/26 08:12:16;;;;;;;6.45;2.15;;;8.40;99.90;;;;;;4901948;29;20241;-70
2023/12/26 08:14:43;;;;;;;5.47;1.60;;;8.40;99.90;;;;;;4898268;29;20884;-71
2023/12/26 08:17:09;;;;;;;6.88;1.70;;;8.40;99.90;;;;;;4895339;29;20237;-70
2023/12/26 08:19:37;;;;;;;1.00;0.88;;;8.40;99.90;;;;;;4893854;29;20640;-71
2023/12/26 08:22:04;;;;;;;9.25;1.48;;;8.40;99.90;;;;;;4893572;29;20243;-70
2023/12/26 08:24:31;;;;;;;7.38;1.50;;;8.40;99.90;;;;;;4897700;29;20208;-70
2023/12/26 08:26:59;;;;;;;7.93;1.45;;;8.40;99.90;;;;;;4896158;29;20563;-71
2023/12/26 08:29:26;;;;;;;5.65;1.90;;;8.50;99.90;;;;;;4895556;29;20211;-70
2023/12/26 08:31:53;;;;;;;1.25;1.15;;;8.50;99.90;;;;;;4893436;29;20255;-69
2023/12/26 08:34:20;;;;;;;1.75;1.65;;;8.50;99.90;;;;;;4901640;29;20215;-70
2023/12/26 08:36:47;;;;;;;2.90;1.52;;;8.50;99.90;;;;;;4894040;29;20223;-71
2023/12/26 08:39:14;;;;;;;12.45;2.60;;;8.50;99.90;;;;;;4897373;29;20212;-70
2023/12/26 08:41:41;;;;;;;0.80;0.80;;;8.50;99.90;;;;;;4901979;29;20286;-71
2023/12/26 08:44:09;;;;;;;6.88;1.63;;;8.60;99.90;;;;;;4902108;29;20217;-71
2023/12/26 08:46:36;;;;;;;3.35;1.80;;;8.60;99.90;;;;;;4901246;29;20211;-71
2023/12/26 08:49:03;;;;;;;2.22;0.95;;;8.60;99.90;;;;;;4894019;29;20298;-71
2023/12/26 08:51:30;;;;;;;8.68;1.40;;;8.60;99.90;;;;;;4895777;29;20223;-71
2023/12/26 08:53:57;;;;;;;1.75;1.42;;;8.70;99.90;;;;;;4896531;29;20227;-71
2023/12/26 08:56:24;;;;;;;1.05;1.00;;;8.70;99.90;;;;;;4901045;29;20225;-71
2023/12/26 08:58:51;;;;;;;3.70;1.35;;;8.70;99.90;;;;;;4894729;29;20227;-71
2023/12/26 09:01:19;;;;;;;2.80;1.40;;;8.70;99.90;;;;;;4900150;29;20315;-71
2023/12/26 09:03:46;;;;;;;2.50;1.30;;;8.70;99.90;;;;;;4897523;29;20215;-73
2023/12/26 09:06:13;;;;;;;4.88;1.67;;;8.70;99.90;;;;;;4896772;29;20215;-71
2023/12/26 09:08:40;;;;;;;1.75;1.00;;;8.70;99.90;;;;;;4894497;29;20212;-71
2023/12/26 09:11:07;;;;;;;3.67;1.60;;;8.70;99.90;;;;;;4895515;29;20318;-71
2023/12/26 09:13:33;;;;;;;1.17;0.80;;;8.70;99.90;;;;;;4903030;29;20216;-72
2023/12/26 09:16:00;;;;;;;6.20;1.67;;;8.70;99.90;;;;;;4895897;29;20799;-71
2023/12/26 09:18:29;;;;;;;5.15;0.85;;;8.70;99.90;;;;;;4895441;29;20234;-71
2023/12/26 09:20:55;;;;;;;6.28;1.55;;;8.70;99.90;;;;;;4884464;29;20231;-72
2023/12/26 09:23:22;;;;;;;5.05;1.50;;;8.80;99.90;;;;;;4892036;29;20223;-71
2023/12/26 09:25:49;;;;;;;6.63;2.45;;;8.80;99.90;;;;;;4893979;29;20675;-71
2023/12/26 09:28:16;;;;;;;5.55;1.50;;;8.80;99.90;;;;;;4895967;29;20207;-71
2023/12/26 09:30:43;;;;;;;3.25;1.38;;;8.90;99.90;;;;;;4893554;29;20750;-71
2023/12/26 09:33:10;;;;;;;2.58;0.90;;;8.90;99.90;;;;;;4894327;29;20216;-71
2023/12/26 09:35:38;;;;;;;1.77;1.00;;;8.90;99.90;;;;;;4895255;29;20693;-70
2023/12/26 09:38:05;;;;;;;3.05;1.33;;;8.90;99.90;;;;;;4895088;29;20239;-71
2023/12/26 09:40:32;;;;;;;0.75;0.52;;;9.00;99.90;;;;;;4888164;29;20232;-71
2023/12/26 09:43:00;;;;;;;2.15;1.30;;;9.00;99.90;;;;;;4890337;29;20292;-70
2023/12/26 09:45:27;;;;;;;6.38;1.15;;;9.00;99.90;;;;;;4893310;29;20284;-70
2023/12/26 09:47:54;;;;;;;8.43;1.45;;;9.00;99.90;;;;;;4892194;29;20211;-71
2023/12/26 09:50:22;;;;;;;1.85;1.67;;;9.00;99.90;;;;;;4893651;29;20212;-70
2023/12/26 09:52:53;;;;;;;1.25;1.00;;;9.10;99.90;;;;;;4892021;29;20298;-71
2023/12/26 09:55:21;;;;;;;1.58;1.30;;;9.00;99.90;;;;;;4894348;29;20211;-71
2023/12/26 09:57:47;;;;;;;4.47;1.23;;;9.10;99.90;;;;;;4884933;29;20227;-69
2023/12/26 10:00:15;;;;;;;5.18;1.02;;;9.10;99.90;;;;;;4884128;29;20218;-70
2023/12/26 10:02:43;;;;;;;1.25;0.80;;;9.10;99.90;;;;;;4890949;29;20625;-70
2023/12/26 10:05:10;;;;;;;0.98;0.98;;;9.10;99.90;;;;;;4892276;29;20224;-69
2023/12/26 10:07:37;;;;;;;0.90;0.90;;;9.20;99.90;;;;;;4891665;29;20216;-69
2023/12/26 10:10:06;;;;;;;4.32;0.98;;;9.20;99.90;;;;;;4891295;29;20214;-70
2023/12/26 10:12:34;;;;;;;6.38;1.33;;;9.20;99.90;;;;;;4888136;29;20232;-69
2023/12/26 10:15:02;;;;;;;2.50;1.10;;;9.20;99.90;;;;;;4890763;29;20236;-69
2023/12/26 10:17:29;;;;;;;1.70;1.60;;;9.20;99.90;;;;;;4889706;29;20347;-70
2023/12/26 10:19:57;;;;;;;4.28;1.02;;;9.20;99.90;;;;;;4890151;29;20212;-70
2023/12/26 10:22:24;;;;;;;3.10;1.45;;;9.20;99.90;;;;;;4888188;29;20239;-69
2023/12/26 10:24:51;;;;;;;1.27;1.25;;;9.10;99.90;;;;;;4889388;29;20209;-69
2023/12/26 10:27:19;;;;;;;1.65;1.15;;;9.10;99.90;;;;;;4893123;29;20234;-69
2023/12/26 10:29:51;;;;;;;1.15;0.80;;;9.10;99.90;;;;;;4891098;29;20263;-70
2023/12/26 10:32:18;;;;;;;2.70;1.70;;;9.10;99.90;;;;;;4885345;29;20325;-69
2023/12/26 10:34:45;;;;;;;3.58;1.42;;;9.30;99.90;;;;;;4891332;29;20212;-69
2023/12/26 10:37:12;;;;;;;2.78;1.77;;;9.30;99.90;;;;;;4888736;29;20217;-69
2023/12/26 10:39:38;;;;;;;1.15;1.05;;;9.30;99.90;;;;;;4891779;29;20213;-69
2023/12/26 10:42:07;;;;;;;0.88;0.88;;;9.20;99.90;;;;;;4891874;29;20242;-70
2023/12/26 10:44:35;;;;;;;1.77;1.65;;;9.20;99.90;;;;;;4893284;29;20236;-71
2023/12/26 10:47:03;;;;;;;1.95;0.80;;;9.20;99.90;;;;;;4894579;29;20272;-69
2023/12/26 10:49:31;;;;;;;2.28;1.05;;;9.30;99.90;;;;;;4900969;29;20536;-68
2023/12/26 10:52:03;;;;;;;5.80;1.45;;;9.30;99.90;;;;;;4893143;29;20228;-69
2023/12/26 10:54:30;;;;;;;4.68;1.30;;;9.30;99.90;;;;;;4893677;29;20215;-68
2023/12/26 10:56:59;;;;;;;10.27;2.60;;;9.30;99.90;;;;;;4894282;29;20208;-69
2023/12/26 10:59:26;;;;;;;1.92;1.55;;;9.20;99.90;;;;;;4893718;29;20241;-71
2023/12/26 11:01:53;;;;;;;5.00;2.08;;;9.20;99.90;;;;;;4889481;29;20241;-69
2023/12/26 11:04:19;;;;;;;2.47;1.17;;;9.30;99.90;;;;;;4892898;29;20811;-69
2023/12/26 11:06:47;;;;;;;8.32;2.80;;;9.30;99.90;;;;;;4890270;29;20295;-69
2023/12/26 11:09:13;;;;;;;4.88;1.45;;;9.30;99.90;;;;;;4891015;29;20210;-69
2023/12/26 11:11:40;;;;;;;1.97;1.87;;;9.30;99.90;;;;;;4891321;29;20320;-67
2023/12/26 11:14:07;;;;;;;0.90;0.90;;;9.40;99.90;;;;;;4890869;29;20619;-69
2023/12/26 11:16:35;;;;;;;1.10;0.80;;;9.60;99.90;;;;;;4891668;29;20225;-70
2023/12/26 11:19:03;;;;;;;1.42;0.70;;;9.70;99.90;;;;;;4897868;29;20228;-69
2023/12/26 11:21:31;;;;;;;2.45;2.25;;;9.80;99.90;;;;;;4893034;29;20234;-69
2023/12/26 11:23:58;;;;;;;3.45;1.60;;;9.90;99.90;;;;;;4893049;29;20248;-69
2023/12/26 11:26:25;;;;;;;1.88;1.00;;;9.90;99.90;;;;;;4893198;29;20273;-70
2023/12/26 11:28:52;;;;;;;4.22;1.30;;;10.00;99.90;;;;;;4892933;29;20201;-68
2023/12/26 11:31:18;;;;;;;5.00;0.98;;;9.90;99.90;;;;;;4896467;29;20321;-69
2023/12/26 11:33:44;;;;;;;1.53;1.43;;;10.00;99.90;;;;;;4896444;29;20400;-69
2023/12/26 11:36:12;;;;;;;2.38;2.17;;;10.00;99.90;;;;;;4896721;29;20493;-70
2023/12/26 11:38:38;;;;;;;6.35;3.40;;;10.00;99.90;;;;;;4896217;29;20237;-70
2023/12/26 11:41:08;;;;;;;1.40;1.30;;;10.00;99.90;;;;;;4896415;29;20238;-69
2023/12/26 11:43:35;;;;;;;1.77;0.90;;;10.00;99.90;;;;;;4896489;29;20245;-68
2023/12/26 11:46:01;;;;;;;1.75;0.50;;;10.00;99.90;;;;;;4896823;29;20557;-69
2023/12/26 11:48:27;;;;;;;5.03;1.00;;;10.00;99.90;;;;;;4895619;29;20212;-69
2023/12/26 11:50:54;;;;;;;1.23;1.13;;;10.10;99.90;;;;;;4895929;29;20670;-69
2023/12/26 11:53:21;;;;;;;1.45;1.35;;;10.10;99.90;;;;;;4896559;29;20490;-68
2023/12/26 11:55:47;;;;;;;1.40;1.30;;;10.10;99.90;;;;;;4894643;29;20243;-69
2023/12/26 11:58:14;;;;;;;3.77;1.20;;;10.10;99.90;;;;;;4895803;29;20266;-70
2023/12/26 12:00:39;;;;;;;1.20;1.10;;;10.20;99.90;;;;;;4894074;29;20574;-69
2023/12/26 12:03:05;;;;;;;1.43;1.03;;;10.10;99.90;;;;;;4896285;29;20222;-69
2023/12/26 12:05:32;;;;;;;3.27;1.47;;;10.20;99.90;;;;;;4896345;29;20534;-69
2023/12/26 12:08:10;;;;;;;5.55;1.10;;;10.10;99.90;;;;;;4891571;29;20218;-68
2023/12/26 12:10:38;;;;;;;3.00;0.75;;;10.10;99.90;;;;;;4896720;29;20245;-69
2023/12/26 12:13:04;;;;;;;3.33;1.77;;;10.00;99.90;;;;;;4896697;29;20222;-69
2023/12/26 12:15:31;;;;;;;2.33;0.90;;;9.90;99.90;;;;;;4895486;29;20217;-69
2023/12/26 12:17:58;;;;;;;4.97;1.27;;;9.90;99.90;;;;;;4895383;29;20577;-69
2023/12/26 12:20:24;;;;;;;2.67;1.13;;;9.90;99.90;;;;;;4891060;29;20218;-68
2023/12/26 12:22:50;;;;;;;3.83;1.37;;;10.00;99.90;;;;;;4893588;29;20232;-68
2023/12/26 12:25:18;;;;;;;3.60;0.70;;;9.90;99.90;;;;;;4894615;29;20315;-70
2023/12/26 12:28:08;;;;;;;2.05;0.93;;;9.90;99.90;;;;;;4892120;29;20205;-71
2023/12/26 12:30:35;;;;;;;1.17;1.17;;;9.80;99.90;;;;;;4889576;29;20231;-71
2023/12/26 12:33:18;;;;;;;2.60;1.15;;;9.80;99.90;;;;;;4890439;29;20276;-73
2023/12/26 12:35:48;;;;;;;1.58;1.13;;;9.70;99.90;;;;;;4894577;29;20684;-72
2023/12/26 12:38:15;;;;;;;4.72;1.33;;;9.60;99.90;;;;;;4895368;29;20232;-69
2023/12/26 12:40:42;;;;;;;0.88;0.88;;;9.70;99.90;;;;;;4894848;29;20802;-70
2023/12/26 12:43:11;;;;;;;1.42;0.68;;;9.70;99.90;;;;;;4894877;29;20597;-69
2023/12/26 12:45:37;;;;;;;1.10;0.80;;;9.70;99.90;;;;;;4895661;29;20229;-69
2023/12/26 12:48:03;;;;;;;3.80;1.70;;;9.80;99.90;;;;;;4892767;29;20563;-69
2023/12/26 12:50:30;;;;;;;3.90;1.70;;;9.80;99.90;;;;;;4890995;29;20217;-69
2023/12/26 12:52:56;;;;;;;2.95;1.35;;;9.80;99.90;;;;;;4892354;29;20564;-69
2023/12/26 12:55:22;;;;;;;1.83;1.10;;;9.80;99.90;;;;;;4895535;29;20301;-70
2023/12/26 12:57:49;;;;;;;1.57;1.43;;;9.80;99.90;;;;;;4891022;29;20230;-71
2023/12/26 13:00:16;;;;;;;2.85;0.82;;;9.70;99.90;;;;;;4896511;29;20227;-71
2023/12/26 13:02:42;;;;;;;3.80;0.70;;;9.70;99.90;;;;;;4890519;29;20308;-73
2023/12/26 13:05:08;;;;;;;3.13;0.83;;;9.70;99.90;;;;;;4894271;29;20304;-70
2023/12/26 13:07:34;;;;;;;1.05;0.93;;;9.70;99.90;;;;;;4895954;29;20469;-71
2023/12/26 13:10:00;;;;;;;3.70;1.33;;;9.70;99.90;;;;;;4893683;29;20584;-73
2023/12/26 13:12:27;;;;;;;2.83;1.23;;;9.70;99.90;;;;;;4890816;29;20493;-71
2023/12/26 13:14:53;;;;;;;1.58;1.20;;;9.80;99.90;;;;;;4894628;29;20533;-70
2023/12/26 13:17:20;;;;;;;10.63;6.13;;;9.70;99.90;;;;;;4895314;29;20208;-71
2023/12/26 13:19:47;;;;;;;2.45;1.50;;;9.70;99.90;;;;;;4890331;29;20233;-72
2023/12/26 13:22:16;;;;;;;2.00;1.90;;;9.70;99.90;;;;;;4890716;29;20232;-71
2023/12/26 13:24:50;;;;;;;3.25;2.95;;;9.70;99.90;;;;;;4894628;29;20223;-72
2023/12/26 13:27:21;;;;;;;1.38;1.38;;;9.70;99.90;;;;;;4893726;29;20217;-71
2023/12/26 13:29:47;;;;;;;3.22;1.95;;;9.60;99.90;;;;;;4893311;29;20205;-73
2023/12/26 13:32:14;;;;;;;13.93;1.93;;;9.60;99.90;;;;;;4894559;29;20303;-71
2023/12/26 13:34:41;;;;;;;8.07;1.40;;;9.50;99.90;;;;;;4917185;23;20555;-69
2023/12/26 13:37:07;;;;;;;0.70;0.70;;;9.40;99.90;;;;;;4899634;29;20639;-68
2023/12/26 13:39:33;;;;;;;1.63;1.20;;;9.30;99.90;;;;;;4908789;29;20236;-68
2023/12/26 13:41:59;;;;;;;3.45;1.35;;;9.20;99.90;;;;;;4907219;29;20210;-69
2023/12/26 13:44:25;;;;;;;2.77;1.13;;;9.10;99.90;;;;;;4907758;29;20576;-68
2023/12/26 13:46:52;;;;;;;2.97;1.93;;;9.10;99.90;;;;;;4903545;29;20746;-68
2023/12/26 13:49:17;;;;;;;2.75;1.42;;;9.00;99.90;;;;;;4908734;29;20215;-69
2023/12/26 13:51:44;;;;;;;5.83;2.70;;;9.00;99.90;;;;;;4905978;29;20226;-68
2023/12/26 13:54:12;;;;;;;2.13;1.45;;;9.00;99.90;;;;;;4904655;29;20630;-69
2023/12/26 13:56:38;;;;;;;4.13;1.00;;;9.00;99.90;;;;;;4906532;29;20209;-69
2023/12/26 13:59:04;;;;;;;2.67;1.60;;;9.10;99.90;;;;;;4908371;29;20321;-69
2023/12/26 14:01:31;;;;;;;2.53;1.60;;;9.10;99.90;;;;;;4902815;29;20624;-69
2023/12/26 14:03:58;;;;;;;1.85;0.90;;;9.10;99.90;;;;;;4903704;29;20207;-69
2023/12/26 14:06:23;;;;;;;2.50;1.20;;;9.10;99.90;;;;;;4902602;29;20257;-69
2023/12/26 14:08:52;;;;;;;5.00;1.23;;;9.10;99.90;;;;;;4906976;29;20207;-69
2023/12/26 14:11:19;;;;;;;1.23;1.10;;;9.10;99.90;;;;;;4907631;29;20210;-69
2023/12/26 14:13:46;;;;;;;4.05;1.13;;;9.10;99.90;;;;;;4902340;29;20295;-68
2023/12/26 14:16:14;;;;;;;7.85;1.00;;;9.10;99.90;;;;;;4906354;29;20235;-68
2023/12/26 14:18:39;;;;;;;3.25;1.15;;;9.00;99.90;;;;;;4905517;29;20252;-69
2023/12/26 14:21:06;;;;;;;2.87;1.13;;;9.00;99.90;;;;;;4909220;29;20211;-68
2023/12/26 14:23:33;;;;;;;1.15;1.10;;;9.00;99.90;;;;;;4911284;29;20214;-68
2023/12/26 14:26:01;;;;;;;1.00;0.95;;;8.90;99.90;;;;;;4913288;29;20236;-69
2023/12/26 14:28:27;;;;;;;1.00;1.00;;;8.90;99.90;;;;;;4912486;29;20203;-69
2023/12/26 14:30:54;;;;;;;1.15;1.15;;;8.90;99.90;;;;;;4909487;29;20222;-70
2023/12/26 14:33:21;;;;;;;2.92;1.73;;;8.80;99.90;;;;;;4915325;29;20215;-69
2023/12/26 14:35:48;;;;;;;2.20;2.00;;;8.80;99.90;;;;;;4912787;29;20234;-69
2023/12/26 14:38:15;;;;;;;2.85;0.70;;;8.80;99.90;;;;;;4914549;29;20241;-68
2023/12/26 14:40:42;;;;;;;1.85;1.27;;;8.70;99.90;;;;;;4909638;29;20555;-69
2023/12/26 14:43:10;;;;;;;0.60;0.60;;;8.80;99.90;;;;;;4902383;29;20215;-69
2023/12/26 14:45:36;;;;;;;1.30;1.30;;;8.70;99.90;;;;;;4909953;29;20242;-68
2023/12/26 14:48:03;;;;;;;4.88;1.00;;;8.70;99.90;;;;;;4908145;29;20210;-67
2023/12/26 14:50:31;;;;;;;0.80;0.80;;;8.70;99.90;;;;;;4906072;29;20299;-67
2023/12/26 14:52:57;;;;;;;1.60;1.52;;;8.70;99.90;;;;;;4907218;29;20235;-68
2023/12/26 14:55:24;;;;;;;4.63;1.10;;;8.60;99.90;;;;;;4902395;29;20922;-67
2023/12/26 14:57:51;;;;;;;1.10;0.77;;;8.60;99.90;;;;;;4908521;29;20215;-70
2023/12/26 15:00:19;;;;;;;5.90;1.15;;;8.50;99.90;;;;;;4907579;29;20230;-67
2023/12/26 15:02:47;;;;;;;2.15;0.68;;;8.50;99.90;;;;;;4903467;29;20217;-68
2023/12/26 15:05:13;;;;;;;4.32;0.98;;;8.40;99.90;;;;;;4908855;29;20264;-68
2023/12/26 15:07:40;;;;;;;1.70;1.15;;;8.30;99.90;;;;;;4912025;29;20211;-68
2023/12/26 15:10:07;;;;;;;2.28;1.50;;;8.30;99.90;;;;;;4911650;29;20206;-68
2023/12/26 15:12:34;;;;;;;2.55;1.10;;;8.20;99.90;;;;;;4902324;29;20242;-68
2023/12/26 15:15:02;;;;;;;1.13;0.95;;;8.20;99.90;;;;;;4907321;29;20230;-69
2023/12/26 15:17:31;;;;;;;2.15;1.30;;;8.10;99.90;;;;;;4903254;29;20242;-69
2023/12/26 15:19:57;;;;;;;1.85;1.10;;;8.00;99.90;;;;;;4908680;29;20589;-68
2023/12/26 15:22:24;;;;;;;4.82;0.68;;;7.90;99.90;;;;;;4907140;29;20512;-68
2023/12/26 15:24:51;;;;;;;0.68;0.50;;;7.80;99.90;;;;;;4904338;29;20570;-69
2023/12/26 15:27:17;;;;;;;2.95;0.85;;;7.80;99.90;;;;;;4905657;29;20226;-68
2023/12/26 15:29:46;;;;;;;3.10;0.52;;;7.70;99.90;;;;;;4912401;29;20215;-68
2023/12/26 15:32:13;;;;;;;3.33;0.88;;;7.70;99.90;;;;;;4905468;29;20207;-68
2023/12/26 15:34:42;;;;;;;0.65;0.65;;;7.60;99.90;;;;;;4909343;29;20666;-69
2023/12/26 15:37:08;;;;;;;1.30;1.20;;;7.60;99.90;;;;;;4908389;29;20242;-70
2023/12/26 15:39:35;;;;;;;0.50;0.50;;;7.50;99.90;;;;;;4907795;29;20320;-69
2023/12/26 15:42:02;;;;;;;0.50;0.50;;;7.50;99.90;;;;;;4909905;29;20203;-69
2023/12/26 15:44:29;;;;;;;0.50;0.50;;;7.50;99.90;;;;;;4907347;29;20369;-69
2023/12/26 15:46:56;;;;;;;1.58;0.60;;;7.40;99.90;;;;;;4912818;29;20211;-69
2023/12/26 15:49:23;;;;;;;1.10;1.10;;;7.30;99.90;;;;;;4909639;29;20211;-70
2023/12/26 15:51:51;;;;;;;0.60;0.60;;;7.30;99.90;;;;;;4911018;29;20715;-69
2023/12/26 15:54:18;;;;;;;1.08;0.85;;;7.30;99.90;;;;;;4910589;29;20206;-70
2023/12/26 15:56:45;;;;;;;0.57;0.57;;;7.20;99.90;;;;;;4900269;29;20212;-69
2023/12/26 15:59:12;;;;;;;4.05;0.60;;;7.20;99.90;;;;;;4904182;29;20741;-69
2023/12/26 16:01:38;;;;;;;0.38;0.30;;;7.10;99.90;;;;;;4906628;29;20219;-69
2023/12/26 16:04:05;;;;;;;0.20;0.20;;;7.00;99.90;;;;;;4910152;29;20218;-69
2023/12/26 16:06:32;;;;;;;0.80;0.40;;;7.00;99.90;;;;;;4912939;29;20210;-69
2023/12/26 16:09:01;;;;;;;2.75;1.08;;;7.00;99.90;;;;;;4909565;29;20286;-69
2023/12/26 16:11:27;;;;;;;1.23;1.10;;;7.00;99.90;;;;;;4907744;29;20595;-70
2023/12/26 16:13:54;;;;;;;1.85;0.80;;;7.00;99.90;;;;;;4912182;29;20211;-69
2023/12/26 16:16:21;;;;;;;1.10;0.55;;;7.10;99.90;;;;;;4907655;29;20227;-69
2023/12/26 16:18:49;;;;;;;0.35;0.35;;;7.00;99.90;;;;;;4907016;29;20237;-69
2023/12/26 16:21:16;;;;;;;3.00;0.60;;;7.00;99.90;;;;;;4912911;29;20215;-69
2023/12/26 16:23:42;;;;;;;2.28;0.68;;;7.00;99.90;;;;;;4914145;29;20210;-69
2023/12/26 16:26:11;;;;;;;1.10;0.70;;;7.00;99.90;;;;;;4906662;29;20236;-70
2023/12/26 16:28:37;;;;;;;0.50;0.50;;;7.00;99.90;;;;;;4911210;29;20209;-70
2023/12/26 16:31:04;;;;;;;0.80;0.80;;;6.90;99.90;;;;;;4904710;29;20211;-69
2023/12/26 16:33:31;;;;;;;0.88;0.88;;;6.90;99.90;;;;;;4911480;29;20574;-70
2023/12/26 16:36:00;;;;;;;0.70;0.70;;;6.90;99.90;;;;;;4908599;29;20304;-69
2023/12/26 16:38:27;;;;;;;1.77;1.48;;;6.90;99.90;;;;;;4904689;29;20222;-69
2023/12/26 16:40:55;;;;;;;0.82;0.82;;;6.90;99.90;;;;;;4906285;29;20206;-70
2023/12/26 16:43:23;;;;;;;0.40;0.40;;;6.90;99.90;;;;;;4907924;29;20203;-69
2023/12/26 16:45:50;;;;;;;3.58;1.00;;;6.90;99.90;;;;;;4909271;29;20245;-69
2023/12/26 16:48:16;;;;;;;1.10;0.50;;;6.90;99.90;;;;;;4910699;29;20214;-71
2023/12/26 16:50:43;;;;;;;2.20;0.50;;;6.90;99.90;;;;;;4905224;29;20207;-69
2023/12/26 16:53:10;;;;;;;2.17;1.10;;;6.90;99.90;;;;;;4908739;29;20566;-70
2023/12/26 16:55:36;;;;;;;3.42;3.22;;;6.90;99.90;;;;;;4908335;29;20245;-70
2023/12/26 16:58:03;;;;;;;2.38;1.10;;;6.80;99.90;;;;;;4914424;29;20221;-71
2023/12/26 17:00:31;;;;;;;0.60;0.60;;;6.80;99.90;;;;;;4909536;29;20242;-70
2023/12/26 17:02:58;;;;;;;0.88;0.88;;;6.80;99.90;;;;;;4905477;29;20241;-68
2023/12/26 17:05:26;;;;;;;1.98;0.85;;;6.70;99.90;;;;;;4911928;29;20965;-70
2023/12/26 17:07:52;;;;;;;1.35;0.77;;;6.80;99.90;;;;;;4910069;29;20230;-69
2023/12/26 17:10:19;;;;;;;0.75;0.73;;;6.80;99.90;;;;;;4906679;29;20295;-69
2023/12/26 17:12:46;;;;;;;0.68;0.40;;;6.80;99.90;;;;;;4905486;29;20209;-69
2023/12/26 17:15:13;;;;;;;2.50;0.88;;;6.80;99.90;;;;;;4907517;29;20230;-70
2023/12/26 17:17:41;;;;;;;0.95;0.80;;;6.80;99.90;;;;;;4906327;29;20215;-70
2023/12/26 17:20:09;;;;;;;0.35;0.35;;;6.80;99.90;;;;;;4903958;29;20229;-69
2023/12/26 17:22:35;;;;;;;1.00;1.00;;;6.70;99.90;;;;;;4909284;29;20215;-70
2023/12/26 17:25:02;;;;;;;0.68;0.68;;;6.60;99.90;;;;;;4914833;29;20233;-70
2023/12/26 17:27:29;;;;;;;1.27;1.27;;;6.60;99.90;;;;;;4903945;29;20242;-70
2023/12/26 17:29:56;;;;;;;0.50;0.50;;;6.50;99.90;;;;;;4904513;29;20209;-69
2023/12/26 17:32:24;;;;;;;0.57;0.57;;;6.50;99.90;;;;;;4900781;29;20210;-70
2023/12/26 17:34:52;;;;;;;0.40;0.40;;;6.40;99.90;;;;;;4905106;29;20620;-70
2023/12/26 17:37:19;;;;;;;1.65;1.27;;;6.40;99.90;;;;;;4905043;29;20213;-70
2023/12/26 17:39:46;;;;;;;1.58;0.98;;;6.30;99.90;;;;;;4909935;29;20317;-69
2023/12/26 17:42:12;;;;;;;3.90;0.88;;;6.30;99.90;;;;;;4905290;29;20219;-69
2023/12/26 17:44:39;;;;;;;0.55;0.55;;;6.20;99.90;;;;;;4907895;29;20231;-70
2023/12/26 17:47:06;;;;;;;0.40;0.40;;;6.20;99.90;;;;;;4904438;29;20207;-71
2023/12/26 17:49:33;;;;;;;1.65;0.60;;;6.10;99.90;;;;;;4906396;29;20211;-70
2023/12/26 17:52:02;;;;;;;0.70;0.70;;;6.10;99.90;;;;;;4907562;29;20218;-70
2023/12/26 17:54:29;;;;;;;0.70;0.60;;;6.10;99.90;;;;;;4907126;29;20301;-69